createdAt,value
2022-09-12T00:00:15.944Z,11.77
2022-09-12T00:00:47.611Z,11.74
2022-09-12T00:01:21.566Z,11.75
2022-09-12T00:01:53.203Z,11.77
2022-09-12T00:02:25.400Z,11.76
2022-09-12T00:02:58.122Z,11.70
2022-09-12T00:03:29.620Z,11.73
2022-09-12T00:04:02.101Z,11.77
2022-09-12T00:04:33.622Z,11.70
2022-09-12T00:05:07.440Z,11.62
2022-09-12T00:05:46.488Z,11.59
2022-09-12T00:06:22.941Z,11.62
2022-09-12T00:06:54.899Z,11.60
2022-09-12T00:07:26.439Z,11.51
2022-09-12T00:07:58.012Z,11.52
2022-09-12T00:08:29.685Z,11.55
2022-09-12T00:09:07.193Z,11.54
2022-09-12T00:09:39.214Z,11.53
2022-09-12T00:10:10.757Z,11.53
2022-09-12T00:10:43.735Z,11.58
2022-09-12T00:11:15.367Z,11.55
2022-09-12T00:11:47.210Z,11.57
2022-09-12T00:12:18.747Z,11.56
2022-09-12T00:12:50.452Z,11.57
2022-09-12T00:13:21.943Z,11.55
2022-09-12T00:13:59.068Z,11.50
2022-09-12T00:14:30.684Z,11.49
2022-09-12T00:15:02.233Z,11.48
2022-09-12T00:15:41.462Z,11.41
2022-09-12T00:16:33.255Z,11.43
2022-09-12T00:17:04.856Z,11.41
2022-09-12T00:17:37.461Z,11.43
2022-09-12T00:18:12.459Z,11.51
2022-09-12T00:18:46.712Z,11.46
2022-09-12T00:19:19.013Z,11.46
2022-09-12T00:19:50.513Z,11.49
2022-09-12T00:20:22.037Z,11.46
2022-09-12T00:20:53.542Z,11.42
2022-09-12T00:21:26.460Z,11.43
2022-09-12T00:21:57.970Z,11.43
2022-09-12T00:22:29.449Z,11.51
2022-09-12T00:23:01.023Z,11.51
2022-09-12T00:23:33.352Z,11.50
2022-09-12T00:24:05.817Z,11.54
2022-09-12T00:24:37.488Z,11.58
2022-09-12T00:25:09.209Z,11.54
2022-09-12T00:25:42.545Z,11.51
2022-09-12T00:26:14.859Z,11.52
2022-09-12T00:26:46.423Z,11.49
2022-09-12T00:27:17.962Z,11.48
2022-09-12T00:27:49.530Z,11.52
2022-09-12T00:28:21.135Z,11.46
2022-09-12T00:28:52.871Z,11.46
2022-09-12T00:29:24.427Z,11.48
2022-09-12T00:29:56.177Z,11.45
2022-09-12T00:30:27.695Z,11.45
2022-09-12T00:30:59.388Z,11.46
2022-09-12T00:31:31.363Z,11.46
2022-09-12T00:32:02.992Z,11.53
2022-09-12T00:32:34.494Z,11.51
2022-09-12T00:33:06.026Z,11.48
2022-09-12T00:33:37.585Z,11.56
2022-09-12T00:34:09.647Z,11.52
2022-09-12T00:34:41.559Z,11.53
2022-09-12T00:35:13.285Z,11.48
2022-09-12T00:35:50.659Z,11.40
2022-09-12T00:36:23.846Z,11.36
2022-09-12T00:36:55.416Z,11.42
2022-09-12T00:37:26.892Z,11.42
2022-09-12T00:37:58.429Z,11.41
2022-09-12T00:38:29.936Z,11.42
2022-09-12T00:39:01.625Z,11.39
2022-09-12T00:39:33.163Z,11.44
2022-09-12T00:40:05.184Z,11.42
2022-09-12T00:40:37.017Z,11.43
2022-09-12T00:41:15.708Z,11.42
2022-09-12T00:41:47.204Z,11.35
2022-09-12T00:42:18.684Z,11.28
2022-09-12T00:42:50.185Z,11.32
2022-09-12T00:43:30.473Z,11.29
2022-09-12T00:44:23.725Z,11.22
2022-09-12T00:44:55.222Z,11.28
2022-09-12T00:45:28.840Z,11.30
2022-09-12T00:46:20.763Z,11.27
2022-09-12T00:46:58.262Z,11.24
2022-09-12T00:47:31.124Z,11.21
2022-09-12T00:48:04.449Z,11.20
2022-09-12T00:48:42.195Z,11.21
2022-09-12T00:49:22.629Z,11.23
2022-09-12T00:50:13.002Z,11.20
2022-09-12T00:50:44.581Z,11.19
2022-09-12T00:51:17.591Z,11.18
2022-09-12T00:52:04.104Z,11.14
2022-09-12T00:52:44.977Z,11.19
2022-09-12T00:53:16.581Z,11.10
2022-09-12T00:53:49.399Z,11.20
2022-09-12T00:54:24.910Z,11.22
2022-09-12T00:55:08.548Z,11.21
2022-09-12T00:55:42.670Z,11.14
2022-09-12T00:56:15.894Z,11.16
2022-09-12T00:56:50.209Z,11.17
2022-09-12T00:57:24.360Z,11.18
2022-09-12T00:57:59.487Z,11.19
2022-09-12T00:58:37.093Z,11.20
2022-09-12T00:59:18.212Z,11.19
2022-09-12T00:59:54.272Z,11.20
2022-09-12T01:00:27.234Z,11.22
2022-09-12T01:00:58.981Z,11.21
2022-09-12T01:01:32.578Z,11.24
2022-09-12T01:02:04.711Z,11.22
2022-09-12T01:02:36.384Z,11.25
2022-09-12T01:03:11.593Z,11.26
2022-09-12T01:03:43.114Z,11.23
2022-09-12T01:04:15.087Z,11.12
2022-09-12T01:04:47.925Z,11.09
2022-09-12T01:05:20.328Z,11.09
2022-09-12T01:06:13.375Z,11.10
2022-09-12T01:06:44.952Z,11.10
2022-09-12T01:07:16.550Z,11.06
2022-09-12T01:07:50.117Z,11.08
2022-09-12T01:08:22.143Z,11.07
2022-09-12T01:08:54.993Z,11.08
2022-09-12T01:09:26.820Z,11.09
2022-09-12T01:09:58.367Z,11.07
2022-09-12T01:10:30.352Z,11.06
2022-09-12T01:11:01.889Z,11.04
2022-09-12T01:11:36.689Z,11.04
2022-09-12T01:12:11.289Z,11.08
2022-09-12T01:12:43.821Z,11.07
2022-09-12T01:13:15.389Z,11.08
2022-09-12T01:13:48.711Z,11.12
2022-09-12T01:14:20.888Z,11.07
2022-09-12T01:14:52.556Z,11.04
2022-09-12T01:15:24.127Z,11.03
2022-09-12T01:15:57.001Z,11.02
2022-09-12T01:16:28.714Z,10.99
2022-09-12T01:17:00.466Z,10.92
2022-09-12T01:17:44.873Z,10.88
2022-09-12T01:18:48.729Z,10.94
2022-09-12T01:19:47.776Z,10.94
2022-09-12T01:21:06.957Z,10.90
2022-09-12T01:22:13.541Z,10.90
2022-09-12T01:22:45.023Z,10.90
2022-09-12T01:23:49.219Z,10.87
2022-09-12T01:24:33.308Z,10.83
2022-09-12T01:25:17.020Z,10.84
2022-09-12T01:26:39.683Z,10.81
2022-09-12T01:27:32.434Z,10.78
2022-09-12T01:28:44.243Z,10.82
2022-09-12T01:30:09.794Z,10.76
2022-09-12T01:30:45.844Z,10.78
2022-09-12T01:31:29.761Z,10.77
2022-09-12T01:32:15.886Z,10.69
2022-09-12T01:33:08.909Z,10.70
2022-09-12T01:33:53.651Z,10.69
2022-09-12T01:34:43.721Z,10.63
2022-09-12T01:35:43.141Z,10.65
2022-09-12T01:36:17.196Z,10.61
2022-09-12T01:37:33.590Z,10.59
2022-09-12T01:38:20.167Z,10.63
2022-09-12T01:39:01.625Z,10.67
2022-09-12T01:39:40.591Z,10.69
2022-09-12T01:40:38.354Z,10.66
2022-09-12T01:41:15.597Z,10.65
2022-09-12T01:42:21.254Z,10.61
2022-09-12T01:43:18.390Z,10.61
2022-09-12T01:43:59.031Z,10.60
2022-09-12T01:44:45.362Z,10.62
2022-09-12T01:45:22.332Z,10.67
2022-09-12T01:46:02.724Z,10.61
2022-09-12T01:47:10.199Z,10.56
2022-09-12T01:47:45.668Z,10.57
2022-09-12T01:48:22.800Z,10.59
2022-09-12T01:49:07.734Z,10.54
2022-09-12T01:49:52.394Z,10.59
2022-09-12T01:50:36.417Z,10.61
2022-09-12T01:51:20.548Z,10.61
2022-09-12T01:52:10.066Z,10.62
2022-09-12T01:52:47.466Z,10.63
2022-09-12T01:53:42.337Z,10.67
2022-09-12T01:54:20.863Z,10.65
2022-09-12T01:55:13.820Z,10.61
2022-09-12T01:55:56.019Z,10.61
2022-09-12T01:56:29.809Z,10.61
2022-09-12T01:57:04.484Z,10.61
2022-09-12T01:57:41.389Z,10.58
2022-09-12T01:58:18.031Z,10.57
2022-09-12T01:58:53.798Z,10.55
2022-09-12T01:59:38.925Z,10.55
2022-09-12T02:00:11.977Z,10.56
2022-09-12T02:01:00.284Z,10.46
2022-09-12T02:01:33.960Z,10.42
2022-09-12T02:02:16.286Z,10.45
2022-09-12T02:02:56.489Z,10.44
2022-09-12T02:03:32.980Z,10.43
2022-09-12T02:04:19.630Z,10.39
2022-09-12T02:04:52.747Z,10.39
2022-09-12T02:05:31.709Z,10.34
2022-09-12T02:06:10.247Z,10.30
2022-09-12T02:06:49.966Z,10.33
2022-09-12T02:07:27.454Z,10.37
2022-09-12T02:08:18.063Z,10.38
2022-09-12T02:08:53.376Z,10.39
2022-09-12T02:09:34.097Z,10.43
2022-09-12T02:10:09.913Z,10.46
2022-09-12T02:10:45.434Z,10.46
2022-09-12T02:11:16.961Z,10.53
2022-09-12T02:11:50.609Z,10.59
2022-09-12T02:12:26.029Z,10.59
2022-09-12T02:13:01.831Z,10.60
2022-09-12T02:13:59.035Z,10.61
2022-09-12T02:14:33.918Z,10.59
2022-09-12T02:15:08.783Z,10.61
2022-09-12T02:15:44.339Z,10.45
2022-09-12T02:16:19.601Z,10.42
2022-09-12T02:17:01.409Z,10.41
2022-09-12T02:17:38.148Z,10.36
2022-09-12T02:18:14.594Z,10.31
2022-09-12T02:18:51.098Z,10.30
2022-09-12T02:19:24.964Z,10.30
2022-09-12T02:20:06.217Z,10.27
2022-09-12T02:20:48.628Z,10.31
2022-09-12T02:21:22.515Z,10.33
2022-09-12T02:21:59.697Z,10.36
2022-09-12T02:22:31.764Z,10.39
2022-09-12T02:23:06.347Z,10.39
2022-09-12T02:23:41.375Z,10.41
2022-09-12T02:24:14.933Z,10.46
2022-09-12T02:24:50.856Z,10.53
2022-09-12T02:25:24.107Z,10.45
2022-09-12T02:26:04.702Z,10.42
2022-09-12T02:26:48.361Z,10.38
2022-09-12T02:27:24.407Z,10.37
2022-09-12T02:28:09.256Z,10.40
2022-09-12T02:28:42.640Z,10.39
2022-09-12T02:29:14.155Z,10.36
2022-09-12T02:29:45.933Z,10.33
2022-09-12T02:30:19.394Z,10.31
2022-09-12T02:30:59.813Z,10.32
2022-09-12T02:31:46.224Z,10.31
2022-09-12T02:32:29.703Z,10.27
2022-09-12T02:33:07.714Z,10.24
2022-09-12T02:34:08.265Z,10.15
2022-09-12T02:34:59.675Z,10.09
2022-09-12T02:35:32.947Z,10.06
2022-09-12T02:36:24.070Z,10.03
2022-09-12T02:37:07.908Z,9.98
2022-09-12T02:38:00.736Z,9.93
2022-09-12T02:38:39.454Z,9.89
2022-09-12T02:39:10.950Z,9.84
2022-09-12T02:39:45.384Z,9.85
2022-09-12T02:40:17.884Z,9.83
2022-09-12T02:40:49.459Z,9.87
2022-09-12T02:41:21.344Z,9.81
2022-09-12T02:41:55.257Z,9.81
2022-09-12T02:42:27.094Z,9.85
2022-09-12T02:42:58.769Z,9.80
2022-09-12T02:43:30.248Z,9.80
2022-09-12T02:44:03.511Z,9.78
2022-09-12T02:44:35.271Z,9.82
2022-09-12T02:45:07.415Z,9.83
2022-09-12T02:45:39.069Z,9.82
2022-09-12T02:46:16.089Z,9.82
2022-09-12T02:46:50.396Z,9.89
2022-09-12T02:47:29.193Z,9.89
2022-09-12T02:48:30.637Z,9.91
2022-09-12T02:49:02.964Z,9.96
2022-09-12T02:49:34.552Z,9.98
2022-09-12T02:50:08.107Z,10.02
2022-09-12T02:50:40.204Z,9.97
2022-09-12T02:51:12.212Z,9.97
2022-09-12T02:51:45.216Z,9.97
2022-09-12T02:52:16.980Z,9.99
2022-09-12T02:52:48.767Z,10.03
2022-09-12T02:53:20.656Z,10.03
2022-09-12T02:53:53.256Z,10.06
2022-09-12T02:54:25.132Z,10.02
2022-09-12T02:54:57.552Z,10.03
2022-09-12T02:55:30.426Z,9.98
2022-09-12T02:56:02.949Z,9.99
2022-09-12T02:56:34.820Z,9.98
2022-09-12T02:57:19.503Z,9.93
2022-09-12T02:57:53.521Z,9.88
2022-09-12T02:58:27.642Z,9.84
2022-09-12T02:59:05.286Z,9.88
2022-09-12T02:59:36.847Z,9.91
2022-09-12T03:00:09.385Z,9.85
2022-09-12T03:01:11.214Z,9.95
2022-09-12T03:01:42.747Z,9.98
2022-09-12T03:02:36.752Z,9.94
2022-09-12T03:03:31.688Z,10.03
2022-09-12T03:04:13.046Z,9.95
2022-09-12T03:05:03.004Z,10.04
2022-09-12T03:05:41.182Z,10.05
2022-09-12T03:06:26.060Z,10.06
2022-09-12T03:07:11.292Z,10.09
2022-09-12T03:08:02.816Z,10.00
2022-09-12T03:08:43.426Z,9.96
2022-09-12T03:09:52.323Z,9.96
2022-09-12T03:10:41.879Z,9.98
2022-09-12T03:11:22.777Z,9.97
2022-09-12T03:12:06.051Z,9.99
2022-09-12T03:12:55.463Z,10.01
2022-09-12T03:13:34.144Z,10.00
2022-09-12T03:14:24.345Z,9.99
2022-09-12T03:15:09.140Z,9.98
2022-09-12T03:15:52.179Z,10.00
2022-09-12T03:16:47.227Z,10.01
2022-09-12T03:17:31.077Z,10.05
2022-09-12T03:18:08.469Z,9.98
2022-09-12T03:19:03.733Z,9.95
2022-09-12T03:19:59.999Z,10.00
2022-09-12T03:20:42.120Z,10.02
2022-09-12T03:21:28.480Z,10.00
2022-09-12T03:22:02.525Z,10.01
2022-09-12T03:22:42.909Z,10.01
2022-09-12T03:23:36.788Z,10.06
2022-09-12T03:24:26.997Z,10.06
2022-09-12T03:25:17.981Z,10.05
2022-09-12T03:26:13.184Z,10.01
2022-09-12T03:26:48.857Z,9.98
2022-09-12T03:27:28.351Z,10.02
2022-09-12T03:28:07.490Z,9.99
2022-09-12T03:28:39.601Z,10.02
2022-09-12T03:29:12.098Z,9.99
2022-09-12T03:29:46.243Z,10.00
2022-09-12T03:30:17.953Z,9.96
2022-09-12T03:30:51.518Z,9.99
2022-09-12T03:31:23.271Z,9.99
2022-09-12T03:31:56.923Z,9.97
2022-09-12T03:32:48.512Z,9.95
2022-09-12T03:33:22.523Z,9.95
2022-09-12T03:33:54.050Z,9.94
2022-09-12T03:34:27.048Z,9.90
2022-09-12T03:34:58.901Z,9.89
2022-09-12T03:35:30.606Z,9.90
2022-09-12T03:36:02.341Z,9.97
2022-09-12T03:36:33.865Z,9.90
2022-09-12T03:37:05.507Z,9.91
2022-09-12T03:37:37.135Z,9.88
2022-09-12T03:38:08.806Z,9.83
2022-09-12T03:38:40.537Z,9.87
2022-09-12T03:39:12.467Z,9.87
2022-09-12T03:39:44.073Z,9.81
2022-09-12T03:40:15.650Z,9.72
2022-09-12T03:40:50.305Z,9.73
2022-09-12T03:41:24.363Z,9.73
2022-09-12T03:41:56.196Z,9.71
2022-09-12T03:42:27.713Z,9.74
2022-09-12T03:42:59.484Z,9.74
2022-09-12T03:43:31.039Z,9.75
2022-09-12T03:44:02.986Z,9.76
2022-09-12T03:44:34.479Z,9.80
2022-09-12T03:45:06.843Z,9.79
2022-09-12T03:45:38.840Z,9.76
2022-09-12T03:46:10.468Z,9.71
2022-09-12T03:46:42.024Z,9.75
2022-09-12T03:47:13.533Z,9.76
2022-09-12T03:47:45.050Z,9.72
2022-09-12T03:48:16.702Z,9.69
2022-09-12T03:48:48.346Z,9.73
2022-09-12T03:49:19.897Z,9.77
2022-09-12T03:49:52.526Z,9.79
2022-09-12T03:50:24.075Z,9.76
2022-09-12T03:50:55.799Z,9.78
2022-09-12T03:51:27.390Z,9.73
2022-09-12T03:51:58.914Z,9.73
2022-09-12T03:52:30.529Z,9.76
2022-09-12T03:53:02.932Z,9.75
2022-09-12T03:53:34.873Z,9.79
2022-09-12T03:54:06.783Z,9.77
2022-09-12T03:54:39.594Z,9.78
2022-09-12T03:55:12.049Z,9.78
2022-09-12T03:55:43.563Z,9.77
2022-09-12T03:56:15.062Z,9.74
2022-09-12T03:56:46.937Z,9.79
2022-09-12T03:57:18.785Z,9.81
2022-09-12T03:57:53.762Z,9.81
2022-09-12T03:58:25.794Z,9.83
2022-09-12T03:58:57.540Z,9.86
2022-09-12T03:59:29.177Z,9.86
2022-09-12T04:00:02.025Z,9.86
2022-09-12T04:00:33.754Z,9.86
2022-09-12T04:01:13.418Z,9.84
2022-09-12T04:01:45.112Z,9.80
2022-09-12T04:02:17.654Z,9.79
2022-09-12T04:02:53.661Z,9.81
2022-09-12T04:03:25.277Z,9.75
2022-09-12T04:03:56.779Z,9.77
2022-09-12T04:04:28.434Z,9.82
2022-09-12T04:05:00.109Z,9.83
2022-09-12T04:05:31.888Z,9.81
2022-09-12T04:06:03.534Z,9.81
2022-09-12T04:06:35.606Z,9.78
2022-09-12T04:07:07.085Z,9.75
2022-09-12T04:07:38.620Z,9.79
2022-09-12T04:08:10.144Z,9.85
2022-09-12T04:08:42.838Z,9.75
2022-09-12T04:09:14.322Z,9.79
2022-09-12T04:09:46.054Z,9.77
2022-09-12T04:10:17.802Z,9.79
2022-09-12T04:10:49.350Z,9.80
2022-09-12T04:11:22.409Z,9.78
2022-09-12T04:11:53.932Z,9.74
2022-09-12T04:12:25.481Z,9.74
2022-09-12T04:12:57.137Z,9.72
2022-09-12T04:13:28.652Z,9.72
2022-09-12T04:14:00.283Z,9.76
2022-09-12T04:14:31.779Z,9.77
2022-09-12T04:15:03.644Z,9.74
2022-09-12T04:15:35.192Z,9.75
2022-09-12T04:16:07.464Z,9.74
2022-09-12T04:16:39.005Z,9.74
2022-09-12T04:17:10.804Z,9.81
2022-09-12T04:17:42.341Z,9.77
2022-09-12T04:18:13.935Z,9.76
2022-09-12T04:18:46.020Z,9.75
2022-09-12T04:19:17.616Z,9.76
2022-09-12T04:19:49.288Z,9.76
2022-09-12T04:20:20.821Z,9.82
2022-09-12T04:20:52.287Z,9.79
2022-09-12T04:21:23.996Z,9.81
2022-09-12T04:21:55.565Z,9.85
2022-09-12T04:22:27.261Z,9.82
2022-09-12T04:22:58.736Z,9.82
2022-09-12T04:23:30.231Z,9.81
2022-09-12T04:24:02.034Z,9.80
2022-09-12T04:24:33.677Z,9.86
2022-09-12T04:25:05.760Z,9.84
2022-09-12T04:25:37.422Z,9.85
2022-09-12T04:26:09.715Z,9.82
2022-09-12T04:26:41.902Z,9.82
2022-09-12T04:27:13.477Z,9.89
2022-09-12T04:27:45.229Z,9.86
2022-09-12T04:28:16.844Z,9.85
2022-09-12T04:28:48.760Z,9.84
2022-09-12T04:29:20.371Z,9.85
2022-09-12T04:29:51.877Z,9.82
2022-09-12T04:30:23.428Z,9.84
2022-09-12T04:30:55.825Z,9.89
2022-09-12T04:31:27.337Z,9.87
2022-09-12T04:31:59.042Z,9.88
2022-09-12T04:32:31.376Z,9.88
2022-09-12T04:33:07.422Z,9.87
2022-09-12T04:33:39.816Z,9.84
2022-09-12T04:34:11.468Z,9.83
2022-09-12T04:34:43.036Z,9.84
2022-09-12T04:35:14.642Z,9.85
2022-09-12T04:35:46.217Z,9.83
2022-09-12T04:36:17.895Z,9.90
2022-09-12T04:36:49.479Z,9.86
2022-09-12T04:37:21.556Z,9.85
2022-09-12T04:37:53.270Z,9.86
2022-09-12T04:38:24.762Z,9.88
2022-09-12T04:38:56.343Z,9.86
2022-09-12T04:39:28.068Z,9.87
2022-09-12T04:39:59.658Z,9.92
2022-09-12T04:40:31.524Z,9.91
2022-09-12T04:41:19.859Z,9.93
2022-09-12T04:41:51.937Z,9.91
2022-09-12T04:42:24.198Z,9.91
2022-09-12T04:42:56.130Z,9.95
2022-09-12T04:43:27.681Z,9.93
2022-09-12T04:44:02.337Z,9.89
2022-09-12T04:44:33.833Z,9.92
2022-09-12T04:45:06.330Z,10.01
2022-09-12T04:45:37.988Z,10.02
2022-09-12T04:46:11.788Z,10.05
2022-09-12T04:46:46.713Z,10.08
2022-09-12T04:47:18.992Z,10.06
2022-09-12T04:47:50.658Z,10.06
2022-09-12T04:48:22.205Z,10.07
2022-09-12T04:48:56.919Z,10.02
2022-09-12T04:49:28.773Z,10.08
2022-09-12T04:50:00.301Z,10.02
2022-09-12T04:50:31.828Z,10.00
2022-09-12T04:51:10.710Z,10.02
2022-09-12T04:51:42.625Z,10.08
2022-09-12T04:52:14.111Z,10.04
2022-09-12T04:52:52.895Z,10.04
2022-09-12T04:53:24.492Z,10.04
2022-09-12T04:53:58.777Z,10.08
2022-09-12T04:54:30.271Z,10.06
2022-09-12T04:55:01.805Z,10.11
2022-09-12T04:55:34.588Z,10.09
2022-09-12T04:56:08.289Z,10.09
2022-09-12T04:56:41.610Z,10.12
2022-09-12T04:57:13.410Z,10.14
2022-09-12T04:57:44.989Z,10.14
2022-09-12T04:58:16.507Z,10.17
2022-09-12T04:58:49.729Z,10.16
2022-09-12T04:59:21.884Z,10.17
2022-09-12T04:59:53.369Z,10.20
2022-09-12T05:00:25.106Z,10.20
2022-09-12T05:00:56.639Z,10.24
2022-09-12T05:01:30.024Z,10.23
2022-09-12T05:02:02.662Z,10.19
2022-09-12T05:02:34.741Z,10.26
2022-09-12T05:03:06.472Z,10.26
2022-09-12T05:03:39.557Z,10.26
2022-09-12T05:04:13.042Z,10.25
2022-09-12T05:04:44.786Z,10.27
2022-09-12T05:05:17.515Z,10.29
2022-09-12T05:05:51.318Z,10.28
2022-09-12T05:06:28.995Z,10.28
2022-09-12T05:07:00.576Z,10.28
2022-09-12T05:07:32.500Z,10.29
2022-09-12T05:08:04.029Z,10.32
2022-09-12T05:08:35.883Z,10.31
2022-09-12T05:09:09.067Z,10.34
2022-09-12T05:09:41.707Z,10.36
2022-09-12T05:10:13.312Z,10.42
2022-09-12T05:10:45.286Z,10.41
2022-09-12T05:11:25.482Z,10.44
2022-09-12T05:12:04.562Z,10.43
2022-09-12T05:12:37.035Z,10.43
2022-09-12T05:13:09.622Z,10.44
2022-09-12T05:13:41.759Z,10.46
2022-09-12T05:14:13.291Z,10.48
2022-09-12T05:14:44.806Z,10.49
2022-09-12T05:15:16.304Z,10.49
2022-09-12T05:15:55.276Z,10.46
2022-09-12T05:16:28.751Z,10.47
2022-09-12T05:17:01.844Z,10.50
2022-09-12T05:17:33.589Z,10.51
2022-09-12T05:18:05.216Z,10.53
2022-09-12T05:18:37.081Z,10.56
2022-09-12T05:19:11.072Z,10.56
2022-09-12T05:19:42.693Z,10.53
2022-09-12T05:20:14.319Z,10.56
2022-09-12T05:20:45.833Z,10.56
2022-09-12T05:21:20.560Z,10.57
2022-09-12T05:21:52.175Z,10.56
2022-09-12T05:22:23.752Z,10.57
2022-09-12T05:22:55.845Z,10.59
2022-09-12T05:23:27.915Z,10.63
2022-09-12T05:24:02.376Z,10.66
2022-09-12T05:24:34.016Z,10.72
2022-09-12T05:25:06.137Z,10.71
2022-09-12T05:25:37.688Z,10.72
2022-09-12T05:26:12.719Z,10.71
2022-09-12T05:26:44.385Z,10.71
2022-09-12T05:27:16.402Z,10.75
2022-09-12T05:27:50.537Z,10.78
2022-09-12T05:28:24.680Z,10.89
2022-09-12T05:28:56.529Z,10.91
2022-09-12T05:29:28.132Z,10.92
2022-09-12T05:29:59.623Z,10.96
2022-09-12T05:30:31.243Z,10.98
2022-09-12T05:31:12.686Z,11.02
2022-09-12T05:31:44.215Z,10.99
2022-09-12T05:32:15.742Z,11.02
2022-09-12T05:32:47.249Z,11.01
2022-09-12T05:33:23.185Z,11.02
2022-09-12T05:33:57.216Z,11.02
2022-09-12T05:34:28.706Z,11.03
2022-09-12T05:35:00.395Z,11.04
2022-09-12T05:35:33.140Z,11.05
2022-09-12T05:36:06.885Z,11.04
2022-09-12T05:36:38.636Z,11.05
2022-09-12T05:37:10.132Z,11.06
2022-09-12T05:37:42.932Z,11.05
2022-09-12T05:38:14.454Z,11.05
2022-09-12T05:38:46.761Z,11.07
2022-09-12T05:39:18.597Z,11.13
2022-09-12T05:39:50.166Z,11.14
2022-09-12T05:40:21.710Z,11.19
2022-09-12T05:40:53.545Z,11.24
2022-09-12T05:41:27.193Z,11.25
2022-09-12T05:41:58.673Z,11.27
2022-09-12T05:42:30.491Z,11.30
2022-09-12T05:43:02.064Z,11.34
2022-09-12T05:43:34.420Z,11.38
2022-09-12T05:44:07.516Z,11.41
2022-09-12T05:44:39.130Z,11.49
2022-09-12T05:45:10.842Z,11.55
2022-09-12T05:45:42.661Z,11.56
2022-09-12T05:46:19.021Z,11.56
2022-09-12T05:46:51.393Z,11.57
2022-09-12T05:47:23.518Z,11.52
2022-09-12T05:47:54.992Z,11.57
2022-09-12T05:48:26.612Z,11.62
2022-09-12T05:49:04.118Z,11.66
2022-09-12T05:49:36.152Z,11.65
2022-09-12T05:50:10.915Z,11.69
2022-09-12T05:50:42.616Z,11.76
2022-09-12T05:51:20.342Z,11.83
2022-09-12T05:51:51.949Z,11.86
2022-09-12T05:52:23.713Z,11.90
2022-09-12T05:52:55.238Z,11.92
2022-09-12T05:53:28.243Z,11.92
2022-09-12T05:54:01.154Z,11.93
2022-09-12T05:54:33.423Z,11.99
2022-09-12T05:55:05.566Z,12.00
2022-09-12T05:55:37.140Z,12.01
2022-09-12T05:56:14.029Z,12.03
2022-09-12T05:56:46.168Z,12.03
2022-09-12T05:57:17.673Z,12.07
2022-09-12T05:57:49.365Z,12.08
2022-09-12T05:58:21.325Z,12.09
2022-09-12T05:59:07.077Z,12.06
2022-09-12T05:59:39.687Z,12.09
2022-09-12T06:00:12.343Z,12.09
2022-09-12T06:00:43.814Z,12.11
2022-09-12T06:01:17.271Z,12.12
2022-09-12T06:01:49.331Z,12.14
2022-09-12T06:02:21.679Z,12.16
2022-09-12T06:02:53.643Z,12.19
2022-09-12T06:03:25.334Z,12.23
2022-09-12T06:04:00.822Z,12.24
2022-09-12T06:04:32.348Z,12.24
2022-09-12T06:05:04.138Z,12.23
2022-09-12T06:05:35.943Z,12.26
2022-09-12T06:06:08.459Z,12.36
2022-09-12T06:06:42.061Z,12.35
2022-09-12T06:07:14.798Z,12.33
2022-09-12T06:07:47.210Z,12.33
2022-09-12T06:08:18.703Z,12.40
2022-09-12T06:08:52.088Z,12.42
2022-09-12T06:09:25.526Z,12.47
2022-09-12T06:10:00.049Z,12.48
2022-09-12T06:10:31.575Z,12.54
2022-09-12T06:11:05.230Z,12.56
2022-09-12T06:11:40.779Z,12.53
2022-09-12T06:12:12.255Z,12.51
2022-09-12T06:12:43.822Z,12.48
2022-09-12T06:13:15.316Z,12.48
2022-09-12T06:13:47.093Z,12.46
2022-09-12T06:14:19.511Z,12.46
2022-09-12T06:14:51.052Z,12.48
2022-09-12T06:15:22.876Z,12.48
2022-09-12T06:15:54.391Z,12.50
2022-09-12T06:16:28.784Z,12.51
2022-09-12T06:17:00.510Z,12.52
2022-09-12T06:17:32.399Z,12.52
2022-09-12T06:18:04.088Z,12.54
2022-09-12T06:18:35.985Z,12.58
2022-09-12T06:19:19.370Z,12.63
2022-09-12T06:19:51.135Z,12.61
2022-09-12T06:20:22.817Z,12.62
2022-09-12T06:20:54.347Z,12.66
2022-09-12T06:21:26.788Z,12.67
2022-09-12T06:21:58.960Z,12.68
2022-09-12T06:22:31.845Z,12.77
2022-09-12T06:23:03.420Z,12.76
2022-09-12T06:23:35.495Z,12.71
2022-09-12T06:24:07.661Z,12.73
2022-09-12T06:24:39.177Z,12.75
2022-09-12T06:25:10.694Z,12.76
2022-09-12T06:25:47.743Z,12.75
2022-09-12T06:26:22.472Z,12.75
2022-09-12T06:26:54.128Z,12.77
2022-09-12T06:27:25.663Z,12.76
2022-09-12T06:27:57.187Z,12.79
2022-09-12T06:28:28.889Z,12.86
2022-09-12T06:29:01.092Z,12.83
2022-09-12T06:29:32.732Z,12.85
2022-09-12T06:30:05.252Z,12.85
2022-09-12T06:30:36.972Z,12.78
2022-09-12T06:31:20.648Z,12.80
2022-09-12T06:31:52.350Z,12.77
2022-09-12T06:32:23.908Z,12.81
2022-09-12T06:32:56.881Z,12.77
2022-09-12T06:33:28.419Z,12.76
2022-09-12T06:34:02.407Z,12.74
2022-09-12T06:34:34.089Z,12.72
2022-09-12T06:35:05.768Z,12.71
2022-09-12T06:35:38.399Z,12.68
2022-09-12T06:36:13.034Z,12.71
2022-09-12T06:36:47.165Z,12.77
2022-09-12T06:37:18.898Z,12.78
2022-09-12T06:37:50.423Z,12.80
2022-09-12T06:38:21.929Z,12.76
2022-09-12T06:38:56.214Z,12.75
2022-09-12T06:39:28.018Z,12.79
2022-09-12T06:40:02.001Z,12.76
2022-09-12T06:40:33.939Z,12.79
2022-09-12T06:41:07.306Z,12.79
2022-09-12T06:41:43.512Z,12.79
2022-09-12T06:42:15.766Z,12.79
2022-09-12T06:42:56.030Z,12.74
2022-09-12T06:43:37.322Z,12.77
2022-09-12T06:44:12.591Z,12.84
2022-09-12T06:44:44.731Z,12.84
2022-09-12T06:45:16.846Z,12.84
2022-09-12T06:45:49.575Z,12.81
2022-09-12T06:46:21.857Z,12.85
2022-09-12T06:46:54.165Z,12.87
2022-09-12T06:47:25.780Z,12.90
2022-09-12T06:47:57.610Z,12.89
2022-09-12T06:48:29.491Z,12.96
2022-09-12T06:49:01.998Z,12.99
2022-09-12T06:49:34.008Z,12.98
2022-09-12T06:50:06.098Z,12.98
2022-09-12T06:50:37.626Z,13.01
2022-09-12T06:51:13.960Z,13.00
2022-09-12T06:51:45.714Z,13.00
2022-09-12T06:52:18.061Z,12.96
2022-09-12T06:52:51.105Z,13.01
2022-09-12T06:53:23.485Z,13.02
2022-09-12T06:53:57.056Z,13.00
2022-09-12T06:54:28.661Z,13.06
2022-09-12T06:55:00.372Z,13.07
2022-09-12T06:55:31.919Z,13.03
2022-09-12T06:56:09.916Z,13.05
2022-09-12T06:56:41.717Z,13.06
2022-09-12T06:57:13.284Z,13.08
2022-09-12T06:57:44.851Z,13.10
2022-09-12T06:58:16.426Z,13.10
2022-09-12T06:58:49.488Z,13.11
2022-09-12T06:59:21.045Z,13.11
2022-09-12T06:59:52.610Z,13.13
2022-09-12T07:00:24.265Z,13.15
2022-09-12T07:01:23.316Z,13.16
2022-09-12T07:01:55.005Z,13.17
2022-09-12T07:02:26.909Z,13.13
2022-09-12T07:02:58.522Z,13.18
2022-09-12T07:03:30.808Z,13.17
2022-09-12T07:04:04.076Z,13.16
2022-09-12T07:04:37.171Z,13.17
2022-09-12T07:05:09.151Z,13.14
2022-09-12T07:05:40.717Z,13.18
2022-09-12T07:06:13.959Z,13.21
2022-09-12T07:06:45.660Z,13.22
2022-09-12T07:07:18.023Z,13.21
2022-09-12T07:07:49.617Z,13.22
2022-09-12T07:08:21.268Z,13.24
2022-09-12T07:08:52.915Z,13.24
2022-09-12T07:09:24.896Z,13.25
2022-09-12T07:09:57.923Z,13.26
2022-09-12T07:10:31.105Z,13.28
2022-09-12T07:11:24.480Z,13.30
2022-09-12T07:11:56.119Z,13.28
2022-09-12T07:12:29.091Z,13.32
2022-09-12T07:13:00.638Z,13.34
2022-09-12T07:13:32.381Z,13.35
2022-09-12T07:14:05.468Z,13.37
2022-09-12T07:14:37.002Z,13.39
2022-09-12T07:15:10.436Z,13.40
2022-09-12T07:15:42.020Z,13.40
2022-09-12T07:16:19.250Z,13.45
2022-09-12T07:16:51.416Z,13.46
2022-09-12T07:17:23.162Z,13.51
2022-09-12T07:17:54.901Z,13.54
2022-09-12T07:18:27.204Z,13.56
2022-09-12T07:19:02.900Z,13.56
2022-09-12T07:19:35.031Z,13.57
2022-09-12T07:20:09.976Z,13.58
2022-09-12T07:20:41.918Z,13.60
2022-09-12T07:21:14.968Z,13.67
2022-09-12T07:21:46.492Z,13.68
2022-09-12T07:22:18.001Z,13.69
2022-09-12T07:22:50.598Z,13.71
2022-09-12T07:23:22.158Z,13.74
2022-09-12T07:23:55.362Z,13.80
2022-09-12T07:24:26.904Z,13.81
2022-09-12T07:24:58.680Z,13.81
2022-09-12T07:25:30.239Z,13.84
2022-09-12T07:26:02.396Z,13.87
2022-09-12T07:26:34.066Z,13.91
2022-09-12T07:27:05.800Z,13.95
2022-09-12T07:27:37.808Z,13.99
2022-09-12T07:28:09.466Z,14.03
2022-09-12T07:28:41.242Z,14.15
2022-09-12T07:29:36.037Z,14.22
2022-09-12T07:30:08.071Z,14.32
2022-09-12T07:30:39.845Z,14.42
2022-09-12T07:31:16.695Z,14.46
2022-09-12T07:31:48.364Z,14.61
2022-09-12T07:32:19.929Z,14.70
2022-09-12T07:32:53.490Z,14.73
2022-09-12T07:33:28.002Z,14.83
2022-09-12T07:33:59.552Z,14.94
2022-09-12T07:34:31.532Z,14.94
2022-09-12T07:35:03.347Z,15.06
2022-09-12T07:35:35.106Z,15.02
2022-09-12T07:36:15.045Z,15.09
2022-09-12T07:36:46.681Z,15.18
2022-09-12T07:37:18.688Z,15.26